Airfield :
LOGIN :

Register | Disclaimer

   EN    FR    IT 

 










Legend :    VFR   Marginal VFR   IFR   Intensive IFR   Very Intensive IFR
Visi :
Ceiling :
>= 8 km
>= 3000ft
5 to 8 km
1000 to 3000 ft
1500m to 5 km
500 to 1000 ft
800 to 1500m
200 to 500 ft
< 800m
< 200 ft
Symbols :   Thunderstorms  Fog  Heavy snow  Heavy precipitations  Wind > 20 kt
SIGMETs :     Misc.  Thunderstorms  Icing  Turbulence  Mountain Waves  Volcanic Ashes







- Airport Elevation : 25 ft
- IATA code : QCY


EGXC - RAF Coningsby

CURRENT METAR :
  • 262350Z AUTO 05007KT 9999 // OVC013/// 12/09 Q1032

EXPIRED METARs :
  • 262250Z 04010KT 9999 OVC013 12/09 Q1032 RMK GRN
  • 262150Z 05008KT 9999 BKN013 12/10 Q1032 RMK GRN

TAF TAF EGXC
Valid from the 27 at 00:00 until the 27 at 18:00 UTC


262225Z 2700/2718 04010KT 9999 BKN014
PROB30
TEMPO 2700/2706 BKN016
BECMG 2708/2711 BKN016
PROB30
TEMPO 2711/2718 FEW016
No reported NOTAMs for that airfield.
1 SIGMET reported for the London FIR (EGTT) :
 
Severe turbulence
EGTT SIGMET 01 VALID 270010/270400 EGRR
EGTT LONDON FIR SEV TURB FCST WI N5033 W00347 - N4950 W00345 - N4933 W00800 - N5028 W00800 - N5033 W00347 SFC/FL060 STNR WKN=



MET'MAP, your aeronautical weather chart ! - Copyright ORBIFLY December 2007 - Disclaimer

ORBIFLY MET'MAP TEAM :

Programming & Development : Alexandra Zaïnal
Concept & Development : Baudouin d'Aumeries
Co-Development & Prog : Marc-Olivier Méhu
Technical & hardware support : Manuel Goepfert

Contact : metmap@orbifly.com




SOURCES & CREDITS :

   NOAA